Map

Track Data

SID SEASON NUMBER BASIN SUBBASIN NAME ISO_TIME NATURE LAT LON WMO_WIND WMO_PRES WMO_AGENCY TRACK_TYPE DIST2LAND LANDFALL IFLAG USA_AGENCY USA_ATCF_ID USA_LAT USA_LON USA_RECORD USA_STATUS USA_WIND USA_PRES USA_SSHS USA_R34_NE USA_R34_SE USA_R34_SW USA_R34_NW USA_R50_NE USA_R50_SE USA_R50_SW USA_R50_NW USA_R64_NE USA_R64_SE USA_R64_SW USA_R64_NW USA_POCI USA_ROCI USA_RMW USA_EYE TOKYO_LAT TOKYO_LON TOKYO_GRADE TOKYO_WIND TOKYO_PRES TOKYO_R50_DIR TOKYO_R50_LONG TOKYO_R50_SHORT TOKYO_R30_DIR TOKYO_R30_LONG TOKYO_R30_SHORT TOKYO_LAND CMA_LAT CMA_LON CMA_CAT CMA_WIND CMA_PRES HKO_LAT HKO_LON HKO_CAT HKO_WIND HKO_PRES NEWDELHI_LAT NEWDELHI_LON NEWDELHI_GRADE NEWDELHI_WIND NEWDELHI_PRES NEWDELHI_CI NEWDELHI_DP NEWDELHI_POCI REUNION_LAT REUNION_LON REUNION_TYPE REUNION_WIND REUNION_PRES REUNION_TNUM REUNION_CI REUNION_RMW REUNION_R34_NE REUNION_R34_SE REUNION_R34_SW REUNION_R34_NW REUNION_R50_NE REUNION_R50_SE REUNION_R50_SW REUNION_R50_NW REUNION_R64_NE REUNION_R64_SE REUNION_R64_SW REUNION_R64_NW BOM_LAT BOM_LON BOM_TYPE BOM_WIND BOM_PRES BOM_TNUM BOM_CI BOM_RMW BOM_R34_NE BOM_R34_SE BOM_R34_SW BOM_R34_NW BOM_R50_NE BOM_R50_SE BOM_R50_SW BOM_R50_NW BOM_R64_NE BOM_R64_SE BOM_R64_SW BOM_R64_NW BOM_ROCI BOM_POCI BOM_EYE BOM_POS_METHOD BOM_PRES_METHOD NADI_LAT NADI_LON NADI_CAT NADI_WIND NADI_PRES WELLINGTON_LAT WELLINGTON_LON WELLINGTON_WIND WELLINGTON_PRES DS824_LAT DS824_LON DS824_STAGE DS824_WIND DS824_PRES TD9636_LAT TD9636_LON TD9636_STAGE TD9636_WIND TD9636_PRES TD9635_LAT TD9635_LON TD9635_WIND TD9635_PRES TD9635_ROCI NEUMANN_LAT NEUMANN_LON NEUMANN_CLASS NEUMANN_WIND NEUMANN_PRES MLC_LAT MLC_LON MLC_CLASS MLC_WIND MLC_PRES USA_GUST BOM_GUST BOM_GUST_PER REUNION_GUST REUNION_GUST_PER USA_SEAHGT USA_SEARAD_NE USA_SEARAD_SE USA_SEARAD_SW USA_SEARAD_NW STORM_SPEED STORM_DIR
1997278N24296 1997 92 NA NA FABIAN 1997-10-04 18:00:00 TS 24.2000 -64.5000 25 1009 hurdat_atl main 658 658 O_____________ hurdat_atl AL081997 24.2000 -64.5000 TD 25 1009 -1 5 20
1997278N24296 1997 92 NA NA FABIAN 1997-10-04 21:00:00 TS 24.4500 -64.4051 main 693 693 P_____________ AL081997 24.4500 -64.4051 TD 25 1009 -1 5 20
1997278N24296 1997 92 NA NA FABIAN 1997-10-05 00:00:00 TS 24.7000 -64.3000 25 1009 hurdat_atl main 717 717 O_____________ hurdat_atl AL081997 24.7000 -64.3000 TD 25 1009 -1 5 23
1997278N24296 1997 92 NA NA FABIAN 1997-10-05 03:00:00 TS 24.9499 -64.1724 main 741 741 P_____________ AL081997 24.9499 -64.1724 TD 25 1009 -1 6 29
1997278N24296 1997 92 NA NA FABIAN 1997-10-05 06:00:00 TS 25.2000 -64.0000 25 1009 hurdat_atl main 777 777 O_____________ hurdat_atl AL081997 25.2000 -64.0000 TD 25 1009 -1 6 37
1997278N24296 1997 92 NA NA FABIAN 1997-10-05 09:00:00 TS 25.4426 -63.7575 main 804 804 P_____________ AL081997 25.4426 -63.7575 TD 27 1008 -1 7 42
1997278N24296 1997 92 NA NA FABIAN 1997-10-05 12:00:00 TS 25.7000 -63.5000 30 1007 hurdat_atl main 844 844 O_____________ hurdat_atl AL081997 25.7000 -63.5000 TD 30 1007 -1 7 36
1997278N24296 1997 92 NA NA FABIAN 1997-10-05 15:00:00 TS 25.9999 -63.2999 main 881 881 P_____________ AL081997 25.9999 -63.2999 TD 32 1006 -1 7 31
1997278N24296 1997 92 NA NA FABIAN 1997-10-05 18:00:00 TS 26.3000 -63.1000 35 1005 hurdat_atl main 919 919 O_____________ hurdat_atl AL081997 26.3000 -63.1000 TS 35 1005 0 7 34
1997278N24296 1997 92 NA NA FABIAN 1997-10-05 21:00:00 TS 26.5649 -62.8724 main 957 957 P_____________ AL081997 26.5649 -62.8724 TS 35 1005 0 7 42
1997278N24296 1997 92 NA NA FABIAN 1997-10-06 00:00:00 TS 26.8000 -62.6000 35 1005 hurdat_atl main 988 988 O_____________ hurdat_atl AL081997 26.8000 -62.6000 TS 35 1005 0 7 52
1997278N24296 1997 92 NA NA FABIAN 1997-10-06 03:00:00 TS 27.0001 -62.2574 main 1019 1019 P_____________ AL081997 27.0001 -62.2574 TS 35 1005 0 7 57
1997278N24296 1997 92 NA NA FABIAN 1997-10-06 06:00:00 TS 27.2000 -61.9000 35 1005 hurdat_atl main 1054 1054 O_____________ hurdat_atl AL081997 27.2000 -61.9000 TS 35 1005 0 7 52
1997278N24296 1997 92 NA NA FABIAN 1997-10-06 09:00:00 TS 27.4421 -61.6296 main 1085 1085 P_____________ AL081997 27.4421 -61.6296 TS 35 1005 0 7 47
1997278N24296 1997 92 NA NA FABIAN 1997-10-06 12:00:00 TS 27.7000 -61.3000 35 1005 hurdat_atl main 1128 1128 O_____________ hurdat_atl AL081997 27.7000 -61.3000 TS 35 1005 0 9 56
1997278N24296 1997 92 NA NA FABIAN 1997-10-06 15:00:00 TS 27.9427 -60.7874 main 1169 1169 P_____________ AL081997 27.9427 -60.7874 TS 35 1005 0 11 63
1997278N24296 1997 92 NA NA FABIAN 1997-10-06 18:00:00 TS 28.2000 -60.2000 35 1005 hurdat_atl main 1225 1225 O_____________ hurdat_atl AL081997 28.2000 -60.2000 TS 35 1005 0 11 60
1997278N24296 1997 92 NA NA FABIAN 1997-10-06 21:00:00 TS 28.5072 -59.6575 main 1278 1278 P_____________ AL081997 28.5072 -59.6575 TS 35 1005 0 11 58
1997278N24296 1997 92 NA NA FABIAN 1997-10-07 00:00:00 TS 28.8000 -59.1000 35 1005 hurdat_atl main 1336 1336 O_____________ hurdat_atl AL081997 28.8000 -59.1000 TS 35 1005 0 11 63
1997278N24296 1997 92 NA NA FABIAN 1997-10-07 03:00:00 TS 29.0224 -58.4997 main 1386 1386 P_____________ AL081997 29.0224 -58.4997 TS 35 1005 0 11 69
1997278N24296 1997 92 NA NA FABIAN 1997-10-07 06:00:00 TS 29.2000 -57.9000 35 1005 hurdat_atl main 1437 1437 O_____________ hurdat_atl AL081997 29.2000 -57.9000 TS 35 1005 0 11 69
1997278N24296 1997 92 NA NA FABIAN 1997-10-07 09:00:00 TS 29.4099 -57.3205 main 1489 1489 P_____________ AL081997 29.4099 -57.3205 TS 35 1004 0 10 73
1997278N24296 1997 92 NA NA FABIAN 1997-10-07 12:00:00 TS 29.5000 -56.8000 35 1004 hurdat_atl main 1527 1527 O_____________ hurdat_atl AL081997 29.5000 -56.8000 TS 35 1004 0 8 94
1997278N24296 1997 92 NA NA FABIAN 1997-10-07 15:00:00 TS 29.3595 -56.3922 main 1542 1534 P_____________ AL081997 29.3595 -56.3922 TS 35 1004 0 8 120
1997278N24296 1997 92 NA NA FABIAN 1997-10-07 18:00:00 TS 29.1000 -56.0000 35 1005 hurdat_atl main 1542 1540 O_____________ hurdat_atl AL081997 29.1000 -56.0000 TS 35 1005 0 9 126
1997278N24296 1997 92 NA NA FABIAN 1997-10-07 21:00:00 TS 28.8344 -55.5599 main 1543 1543 P_____________ AL081997 28.8344 -55.5599 TS 35 1005 0 10 120
1997278N24296 1997 92 NA NA FABIAN 1997-10-08 00:00:00 TS 28.6000 -55.0000 35 1005 hurdat_atl main 1568 1568 O_____________ hurdat_atl AL081997 28.6000 -55.0000 TS 35 1005 0 12 109
1997278N24296 1997 92 NA NA FABIAN 1997-10-08 03:00:00 TS 28.4396 -54.2744 main 1603 1603 P_____________ AL081997 28.4396 -54.2744 TS 35 1005 0 14 98
1997278N24296 1997 92 NA NA FABIAN 1997-10-08 06:00:00 TS 28.4000 -53.4000 35 1005 hurdat_atl main 1670 1670 O_____________ hurdat_atl AL081997 28.4000 -53.4000 TS 35 1005 0 16 88
1997278N24296 1997 92 NA NA FABIAN 1997-10-08 09:00:00 TS 28.4963 -52.4749 main 1746 1746 P_____________ AL081997 28.4963 -52.4749 TS 35 1005 0 18 80
1997278N24296 1997 92 NA NA FABIAN 1997-10-08 12:00:00 ET 28.7000 -51.4000 35 1005 hurdat_atl main 1845 1845 O_____________ hurdat_atl AL081997 28.7000 -51.4000 EX 35 1005 -4 21 78
1997278N24296 1997 92 NA NA FABIAN 1997-10-08 15:00:00 ET 28.9457 -50.1514 main 1954 1954 P_____________ AL081997 28.9457 -50.1514 EX 37 1005 -4 23 78
1997278N24296 1997 92 NA NA FABIAN 1997-10-08 18:00:00 ET 29.2000 -48.8000 40 1005 hurdat_atl main 1974 O_____________ hurdat_atl AL081997 29.2000 -48.8000 EX 40 1005 -4 24 78

About IBTrACS Database

This database is a web-friendly format of International Best Track Archive for Climate Stewardship (IBTrACS), a global best track data archive curated by NOAA dating back to 1842.

Updated: 2021-12-06